Time;durP1;ratioP1;P1;durP2;ratioP2;P2;SDS_P1;SDS_P2;PMS_P1;PMS_P2;Temp;Humidity;BMP_temperature;BMP_pressure;BME280_temperature;BME280_humidity;BME280_pressure;Samples;Min_cycle;Max_cycle;Signal;HPM_P1;HPM_P2
2022/06/04 00:00:46;;;;;;;2.80;2.10;;;;;;;15.57;59.81;101948.59;5014719;28;20025;-47
2022/06/04 00:03:12;;;;;;;4.18;2.30;;;;;;;15.49;60.11;101946.34;5017478;28;20029;-47
2022/06/04 00:05:41;;;;;;;4.70;2.25;;;;;;;15.42;60.44;101946.50;5012771;28;20028;-48
2022/06/04 00:08:09;;;;;;;4.15;2.30;;;;;;;15.36;60.54;101942.94;5016757;28;20438;-48
2022/06/04 00:16:07;;;;;;;3.55;2.47;;;;;;;15.37;60.57;101943.75;5016176;28;20036;-47
2022/06/04 00:18:33;;;;;;;3.92;2.75;;;;;;;15.34;60.87;101944.25;5014245;28;20388;-47
2022/06/04 00:20:59;;;;;;;4.03;2.45;;;;;;;15.33;60.69;101937.22;5013572;28;20022;-47
2022/06/04 00:23:26;;;;;;;4.18;2.42;;;;;;;15.31;60.50;101940.19;5016415;28;20032;-48
2022/06/04 00:25:54;;;;;;;4.20;2.70;;;;;;;15.27;60.46;101939.06;5016975;28;20044;-47
2022/06/04 00:28:22;;;;;;;4.70;2.60;;;;;;;15.25;60.38;101949.25;5010970;28;20419;-48
2022/06/04 00:30:48;;;;;;;6.10;2.88;;;;;;;15.24;60.44;101944.94;5015024;28;20049;-47
2022/06/04 00:33:16;;;;;;;4.30;2.58;;;;;;;15.25;60.36;101943.03;5016116;28;20570;-48
2022/06/04 00:35:42;;;;;;;4.88;2.92;;;;;;;15.24;60.25;101950.34;5016409;28;20025;-47
2022/06/04 00:38:07;;;;;;;6.13;2.85;;;;;;;15.24;60.13;101944.94;5012747;28;20042;-48
2022/06/04 00:40:43;;;;;;;4.35;2.35;;;;;;;15.22;60.36;101941.66;5016255;28;20033;-47
2022/06/04 00:43:09;;;;;;;6.75;2.75;;;;;;;15.19;60.21;101938.66;5015341;28;20025;-47
2022/06/04 00:45:34;;;;;;;3.72;2.55;;;;;;;15.09;60.42;101948.28;5015996;28;20034;-47
2022/06/04 00:48:03;;;;;;;5.32;2.70;;;;;;;15.04;60.32;101937.38;5012298;28;20037;-47
2022/06/04 00:50:31;;;;;;;5.18;2.70;;;;;;;15.03;60.11;101943.84;5015337;28;20319;-47
2022/06/04 00:52:59;;;;;;;7.90;2.53;;;;;;;14.98;60.47;101934.88;5017932;28;20128;-46
2022/06/04 00:55:32;;;;;;;7.07;2.80;;;;;;;14.96;60.52;101931.59;5015719;28;20036;-47
2022/06/04 00:58:15;;;;;;;4.80;2.70;;;;;;;14.95;60.46;101929.97;5015812;28;20037;-48
2022/06/04 01:00:59;;;;;;;8.02;2.75;;;;;;;14.95;60.97;101924.56;5011930;28;20030;-48
2022/06/04 01:03:42;;;;;;;3.45;2.40;;;;;;;14.97;60.55;101925.94;5014450;28;20033;-48
2022/06/04 01:06:31;;;;;;;5.55;2.90;;;;;;;14.86;61.10;101915.25;5015339;28;20030;-47
2022/06/04 01:09:27;;;;;;;4.82;2.42;;;;;;;14.81;61.08;101918.69;5013045;28;20029;-47
2022/06/04 01:12:10;;;;;;;4.38;2.85;;;;;;;14.81;60.62;101916.81;5019400;28;20044;-47
2022/06/04 01:15:08;;;;;;;2.65;2.20;;;;;;;14.74;60.52;101921.59;5012561;28;20128;-47
2022/06/04 01:17:42;;;;;;;6.28;2.78;;;;;;;14.71;60.98;101929.31;5013916;28;20503;-48
2022/06/04 01:21:02;;;;;;;5.05;2.53;;;;;;;14.64;60.86;101926.00;5013715;28;20033;-48
2022/06/04 01:24:04;;;;;;;5.10;2.38;;;;;;;14.57;61.42;101928.88;4960920;28;20102;-47
2022/06/04 01:26:48;;;;;;;3.75;2.63;;;;;;;14.57;61.33;101928.06;5016409;28;20388;-47
2022/06/04 01:29:23;;;;;;;3.05;2.35;;;;;;;14.57;61.01;101920.78;5012410;28;20033;-47
2022/06/04 01:31:54;;;;;;;2.60;2.17;;;;;;;14.61;60.67;101924.63;5015971;28;20120;-47
2022/06/04 01:34:31;;;;;;;5.88;2.53;;;;;;;14.64;61.22;101928.69;5013136;28;20045;-47
2022/06/04 01:37:09;;;;;;;3.13;2.25;;;;;;;14.69;61.16;101926.88;5014523;28;20117;-48
2022/06/04 01:42:48;;;;;;;3.72;2.40;;;;;;;14.59;61.15;101921.34;4960322;28;20034;-48
2022/06/04 01:45:16;;;;;;;2.95;2.20;;;;;;;14.52;61.16;101920.69;4959808;28;20474;-46
2022/06/04 01:47:46;;;;;;;5.60;2.50;;;;;;;14.54;60.82;101921.25;4990326;28;20053;-47
2022/06/04 01:50:17;;;;;;;4.22;2.53;;;;;;;14.57;60.66;101918.09;5018994;28;20041;-48
2022/06/04 01:52:44;;;;;;;4.80;2.40;;;;;;;14.56;60.49;101916.44;5018349;28;20050;-47
2022/06/04 01:55:20;;;;;;;3.97;2.40;;;;;;;14.50;60.60;101920.94;5016618;28;20027;-46
2022/06/04 01:57:58;;;;;;;2.80;1.90;;;;;;;14.48;60.35;101923.06;5019314;28;20497;-46
2022/06/04 02:00:29;;;;;;;3.72;2.13;;;;;;;14.45;60.39;101930.81;5019822;28;20196;-46
2022/06/04 02:03:04;;;;;;;4.60;2.38;;;;;;;14.38;60.62;101927.44;5020986;28;20112;-48
2022/06/04 02:05:59;;;;;;;3.55;2.00;;;;;;;14.27;60.71;101925.63;5018951;28;20022;-48
2022/06/04 02:08:38;;;;;;;5.32;2.20;;;;;;;14.29;60.65;101912.72;4997182;28;20491;-49
2022/06/04 02:11:14;;;;;;;4.57;2.22;;;;;;;14.31;60.25;101919.50;5019620;28;20033;-49
2022/06/04 02:13:42;;;;;;;3.60;2.20;;;;;;;14.30;60.40;101908.97;5017333;28;20608;-48
2022/06/04 02:16:20;;;;;;;3.70;1.98;;;;;;;14.26;60.42;101910.53;5019022;28;20014;-48
2022/06/04 02:18:47;;;;;;;3.65;2.08;;;;;;;14.28;60.31;101911.91;5017467;28;20030;-51
2022/06/04 02:21:15;;;;;;;4.70;2.15;;;;;;;14.26;60.17;101907.81;5020199;28;20116;-49
2022/06/04 02:23:42;;;;;;;3.13;2.35;;;;;;;14.20;60.24;101909.63;5016422;28;20438;-47
2022/06/04 02:26:07;;;;;;;4.22;2.08;;;;;;;14.23;59.83;101908.31;5015212;28;20033;-47
2022/06/04 02:28:35;;;;;;;6.72;2.38;;;;;;;14.23;59.73;101902.94;5017910;28;20046;-48
2022/06/04 02:31:29;;;;;;;3.47;2.30;;;;;;;14.20;59.81;101909.63;5019357;28;20030;-47
2022/06/04 02:34:13;;;;;;;3.08;2.10;;;;;;;14.26;59.37;101905.13;5017265;28;20017;-48
2022/06/04 02:36:50;;;;;;;4.45;2.33;;;;;;;14.26;59.16;101905.13;5018359;28;20049;-49
2022/06/04 02:39:25;;;;;;;4.32;2.20;;;;;;;14.24;59.12;101908.06;5014839;28;20041;-49
2022/06/04 02:42:02;;;;;;;3.88;2.08;;;;;;;14.17;59.04;101910.09;5014566;28;20106;-47
2022/06/04 02:44:31;;;;;;;5.20;2.33;;;;;;;14.18;59.07;101909.88;5020718;28;20059;-49
2022/06/04 02:47:06;;;;;;;4.55;2.20;;;;;;;14.21;58.97;101904.00;5016811;28;20084;-47
2022/06/04 02:49:51;;;;;;;;;;;;;;;14.10;59.67;101906.75;5021355;28;20029;-50
2022/06/04 02:52:18;;;;;;;3.45;2.22;;;;;;;14.13;59.13;101912.47;5018197;28;19929;-47
2022/06/04 02:54:55;;;;;;;3.15;1.77;;;;;;;14.10;58.99;101915.66;5016098;28;20108;-48
2022/06/04 02:57:24;;;;;;;3.17;2.40;;;;;;;14.12;58.97;101921.59;5011766;28;20030;-48
2022/06/04 02:59:50;;;;;;;2.65;2.22;;;;;;;14.09;59.04;101921.28;5018294;28;20261;-46
2022/06/04 03:02:19;;;;;;;5.15;1.80;;;;;;;14.07;59.00;101918.03;5012623;28;20640;-47
2022/06/04 03:04:50;;;;;;;3.25;1.98;;;;;;;14.03;59.14;101911.47;5017904;28;20026;-47
2022/06/04 03:07:18;;;;;;;3.53;1.98;;;;;;;14.03;58.89;101914.19;5015083;28;20061;-50
2022/06/04 03:09:44;;;;;;;3.13;2.08;;;;;;;14.04;58.88;101919.31;5013913;28;20401;-49
2022/06/04 03:12:14;;;;;;;3.97;2.10;;;;;;;14.06;59.05;101921.78;5020076;28;20025;-48
2022/06/04 03:14:39;;;;;;;4.45;2.10;;;;;;;14.06;58.88;101911.00;5015221;28;20112;-51
2022/06/04 03:17:10;;;;;;;3.97;2.05;;;;;;;14.03;58.93;101906.91;5018368;28;20108;-49
2022/06/04 03:19:36;;;;;;;6.00;2.03;;;;;;;14.06;58.86;101911.81;5016795;28;20021;-48
2022/06/04 03:22:02;;;;;;;5.30;2.15;;;;;;;14.11;58.44;101909.19;5020116;28;20029;-49
2022/06/04 03:24:28;;;;;;;6.40;2.40;;;;;;;14.11;58.62;101917.28;5018631;28;20087;-48
2022/06/04 03:26:54;;;;;;;3.38;1.98;;;;;;;14.17;58.37;101912.78;5017859;28;20511;-46
2022/06/04 03:29:20;;;;;;;2.55;2.10;;;;;;;14.17;58.57;101913.59;5014793;28;20033;-46
2022/06/04 03:31:46;;;;;;;3.35;2.20;;;;;;;14.16;58.54;101917.38;5019411;28;20099;-47
2022/06/04 03:34:12;;;;;;;3.50;1.98;;;;;;;14.18;58.52;101920.66;5016563;28;20025;-47
2022/06/04 03:36:38;;;;;;;5.03;2.28;;;;;;;14.15;58.38;101915.72;5016266;28;20030;-48
2022/06/04 03:39:05;;;;;;;3.05;1.80;;;;;;;14.17;58.33;101912.78;5031476;23;20044;-47
2022/06/04 03:41:31;;;;;;;4.88;2.00;;;;;;;14.24;58.14;101910.78;5020748;28;20025;-48
2022/06/04 03:43:57;;;;;;;3.63;1.80;;;;;;;14.30;57.67;101917.06;5024456;28;20018;-50
2022/06/04 03:46:27;;;;;;;2.42;1.80;;;;;;;14.26;57.88;101915.91;5021880;28;20527;-47
2022/06/04 03:48:56;;;;;;;3.45;2.00;;;;;;;14.21;58.05;101920.16;5023122;28;20544;-47
2022/06/04 03:51:24;;;;;;;2.20;1.88;;;;;;;14.21;57.97;101920.16;5022197;28;20482;-49
2022/06/04 03:53:49;;;;;;;3.95;2.03;;;;;;;14.19;58.15;101926.88;5023581;28;20025;-47
2022/06/04 03:56:15;;;;;;;3.15;1.77;;;;;;;14.19;58.16;101926.88;5018992;28;20026;-48
2022/06/04 03:58:41;;;;;;;3.63;1.80;;;;;;;14.20;57.97;101929.31;5023808;28;20029;-49
2022/06/04 04:01:21;;;;;;;4.32;2.00;;;;;;;14.22;57.95;101931.75;5023755;28;20104;-51
2022/06/04 04:03:47;;;;;;;2.10;1.90;;;;;;;14.20;58.18;101923.94;5022184;28;20414;-48
2022/06/04 04:06:18;;;;;;;3.25;2.03;;;;;;;14.23;58.14;101929.88;5022017;28;20037;-47
2022/06/04 04:08:44;;;;;;;5.30;2.15;;;;;;;14.24;57.96;101928.81;5023065;28;20052;-47
2022/06/04 04:11:15;;;;;;;4.22;2.30;;;;;;;14.27;57.79;101928.34;5023518;28;20478;-49
2022/06/04 04:13:42;;;;;;;2.88;1.98;;;;;;;14.30;57.66;101925.16;5022372;28;20032;-49
2022/06/04 04:16:10;;;;;;;2.45;2.00;;;;;;;14.33;57.39;101927.34;5020617;28;20127;-47
2022/06/04 04:18:36;;;;;;;2.97;1.90;;;;;;;14.35;57.20;101926.03;5023258;28;20033;-47
2022/06/04 04:21:07;;;;;;;2.92;2.30;;;;;;;14.35;57.12;101933.31;5022760;28;20032;-50
2022/06/04 04:23:34;;;;;;;3.63;1.70;;;;;;;14.40;56.99;101936.94;5023322;28;20036;-47
2022/06/04 04:26:00;;;;;;;3.80;1.92;;;;;;;14.44;57.20;101935.41;5021458;28;20045;-49
2022/06/04 04:28:26;;;;;;;2.10;1.85;;;;;;;14.48;56.88;101923.06;5020316;28;20402;-49
2022/06/04 04:30:52;;;;;;;4.00;1.80;;;;;;;14.55;56.53;101924.78;5022220;28;20021;-48
2022/06/04 04:33:18;;;;;;;2.22;1.40;;;;;;;14.57;56.48;101928.88;5023094;28;20100;-47
2022/06/04 04:35:44;;;;;;;2.38;1.63;;;;;;;14.62;56.37;101936.22;5018753;28;20387;-47
2022/06/04 04:38:11;;;;;;;1.85;1.60;;;;;;;14.66;56.03;101938.16;5022772;28;20272;-50
2022/06/04 04:40:37;;;;;;;2.53;1.60;;;;;;;14.70;55.89;101935.78;5020483;28;20083;-47
2022/06/04 04:43:03;;;;;;;2.75;1.50;;;;;;;14.75;55.50;101941.28;5021677;28;20506;-47
2022/06/04 04:45:29;;;;;;;4.22;1.75;;;;;;;14.79;55.26;101932.44;5021046;28;20126;-52
2022/06/04 04:47:56;;;;;;;3.83;1.80;;;;;;;14.88;55.07;101940.09;5022434;28;20041;-48
2022/06/04 04:50:34;;;;;;;3.53;1.65;;;;;;;14.95;54.89;101938.06;5022742;28;20025;-48
2022/06/04 04:53:02;;;;;;;4.50;1.63;;;;;;;15.06;54.79;101942.53;5022435;28;20033;-48
2022/06/04 04:55:28;;;;;;;2.38;1.40;;;;;;;15.11;54.86;101940.72;5020599;28;20090;-48
2022/06/04 04:57:54;;;;;;;2.22;1.30;;;;;;;15.19;54.54;101934.06;5022389;28;20475;-47
2022/06/04 05:00:20;;;;;;;3.25;1.40;;;;;;;15.26;54.42;101931.19;5022709;28;20045;-48
2022/06/04 05:02:46;;;;;;;5.28;1.67;;;;;;;15.31;54.32;101933.97;5021747;28;20398;-47
2022/06/04 05:05:13;;;;;;;1.30;1.10;;;;;;;15.36;54.11;101936.72;5022161;28;20083;-48
2022/06/04 05:07:40;;;;;;;2.70;1.40;;;;;;;15.40;53.68;101933.25;5021773;28;20030;-47
2022/06/04 05:10:07;;;;;;;1.58;1.20;;;;;;;15.47;53.54;101925.00;5024042;28;20060;-47
2022/06/04 05:12:32;;;;;;;2.97;1.48;;;;;;;15.50;53.42;101931.78;5021868;28;20554;-47
2022/06/04 05:14:58;;;;;;;2.00;1.40;;;;;;;15.55;53.29;101934.53;5022911;28;20151;-47
2022/06/04 05:17:24;;;;;;;3.15;1.40;;;;;;;15.60;52.89;101934.59;5017248;28;20110;-48
2022/06/04 05:19:49;;;;;;;2.22;1.50;;;;;;;15.64;52.82;101936.56;5022729;28;20025;-48
2022/06/04 05:22:15;;;;;;;1.73;1.30;;;;;;;15.68;52.57;101939.56;5022339;28;20338;-48
2022/06/04 05:24:43;;;;;;;2.05;1.30;;;;;;;15.71;52.74;101939.06;5022576;28;20025;-48
2022/06/04 05:27:09;;;;;;;1.92;1.25;;;;;;;15.75;53.04;101940.19;5021641;28;20029;-48
2022/06/04 05:29:36;;;;;;;3.90;1.50;;;;;;;15.75;52.59;101945.59;5025075;28;20571;-47
2022/06/04 05:32:03;;;;;;;2.85;1.00;;;;;;;15.78;52.65;101947.78;5026434;28;20029;-48
2022/06/04 05:34:29;;;;;;;2.88;1.60;;;;;;;15.77;52.72;101948.03;5025324;28;20053;-49
2022/06/04 05:36:55;;;;;;;1.92;1.08;;;;;;;15.80;52.47;101942.97;5027461;28;20144;-49
2022/06/04 05:39:22;;;;;;;2.20;1.42;;;;;;;15.80;52.58;101940.25;5026582;28;20040;-47
2022/06/04 05:41:48;;;;;;;1.95;1.42;;;;;;;15.85;52.58;101939.50;5025739;28;20029;-47
2022/06/04 05:44:15;;;;;;;4.15;1.58;;;;;;;15.87;52.63;101938.16;5027226;28;20471;-49
2022/06/04 05:46:42;;;;;;;2.65;1.70;;;;;;;15.90;52.58;101934.94;5026703;28;20079;-47
2022/06/04 05:49:13;;;;;;;1.60;1.30;;;;;;;15.93;52.34;101939.03;5026655;28;20021;-49
2022/06/04 05:51:41;;;;;;;1.90;1.42;;;;;;;15.95;52.39;101932.28;5025552;28;20029;-48
2022/06/04 05:54:07;;;;;;;3.63;1.40;;;;;;;16.04;52.31;101927.25;5025687;28;20021;-49
2022/06/04 05:56:36;;;;;;;2.85;1.67;;;;;;;16.10;52.54;101928.09;5022255;28;20082;-48
2022/06/04 05:59:07;;;;;;;3.05;1.50;;;;;;;16.17;52.65;101931.44;5025365;28;20048;-48
2022/06/04 06:01:35;;;;;;;2.35;1.40;;;;;;;16.24;52.73;101940.97;5023910;28;20037;-47
2022/06/04 06:04:01;;;;;;;2.10;1.40;;;;;;;16.31;52.67;101940.72;5026678;28;20120;-47
2022/06/04 06:06:31;;;;;;;1.80;1.38;;;;;;;16.39;52.86;101937.56;5025040;28;20021;-47
2022/06/04 06:09:00;;;;;;;1.65;1.42;;;;;;;16.48;52.61;101941.41;5027457;28;20080;-48
2022/06/04 06:11:25;;;;;;;3.30;1.73;;;;;;;16.59;52.52;101943.16;5023332;28;20029;-49
2022/06/04 06:13:52;;;;;;;2.38;1.17;;;;;;;16.67;52.25;101933.75;5027109;28;20080;-48
2022/06/04 06:16:24;;;;;;;2.60;1.40;;;;;;;16.75;52.48;101935.16;5025593;28;20560;-48
2022/06/04 06:18:50;;;;;;;3.58;1.50;;;;;;;16.86;52.32;101937.66;5026764;28;20144;-47
2022/06/04 06:21:22;;;;;;;1.83;1.40;;;;;;;16.91;51.82;101936.91;5025409;28;20530;-50
2022/06/04 06:23:49;;;;;;;2.55;1.38;;;;;;;16.93;51.70;101934.75;5026763;28;20029;-47
2022/06/04 06:26:21;;;;;;;3.47;1.92;;;;;;;16.96;51.58;101931.50;5023399;28;20029;-47
2022/06/04 06:28:46;;;;;;;7.18;1.58;;;;;;;17.00;51.56;101934.50;5024914;28;20034;-47
2022/06/04 06:31:19;;;;;;;2.42;1.65;;;;;;;17.02;51.62;101937.75;5026438;28;20088;-51
2022/06/04 06:33:45;;;;;;;2.15;1.33;;;;;;;17.08;51.59;101942.97;5022554;28;20033;-47
2022/06/04 06:36:14;;;;;;;7.07;2.47;;;;;;;17.16;51.84;101945.16;5023647;28;20084;-47
2022/06/04 06:38:39;;;;;;;3.05;1.70;;;;;;;17.28;51.83;101958.50;5023641;28;20391;-47
2022/06/04 06:41:07;;;;;;;2.70;1.52;;;;;;;17.37;51.95;101956.09;5023058;28;20021;-47
2022/06/04 06:43:38;;;;;;;1.80;1.33;;;;;;;17.43;51.77;101961.28;5024693;28;20033;-47
2022/06/04 06:46:09;;;;;;;2.25;1.50;;;;;;;17.48;51.48;101955.06;5022365;28;20025;-47
2022/06/04 06:48:38;;;;;;;1.88;1.42;;;;;;;17.53;51.52;101960.50;5023415;28;20036;-48
2022/06/04 06:51:11;;;;;;;3.28;1.60;;;;;;;17.57;51.22;101958.06;5024459;28;20108;-48
2022/06/04 06:53:37;;;;;;;3.53;1.58;;;;;;;17.64;51.22;101962.19;5023833;28;20572;-47
2022/06/04 06:56:09;;;;;;;5.25;1.67;;;;;;;17.70;51.18;101963.03;5026526;28;20028;-47
2022/06/04 06:58:35;;;;;;;4.82;1.52;;;;;;;17.79;51.02;101967.69;5023830;28;20656;-47
2022/06/04 07:01:01;;;;;;;3.88;1.60;;;;;;;17.86;50.99;101980.97;5025172;28;20041;-48
2022/06/04 07:03:26;;;;;;;3.25;1.60;;;;;;;17.91;51.00;101972.03;5022136;28;20030;-47
2022/06/04 07:05:55;;;;;;;3.08;1.60;;;;;;;17.94;51.00;101977.72;5025815;28;20018;-47
2022/06/04 07:08:25;;;;;;;2.50;1.55;;;;;;;17.96;50.89;101981.00;5025135;28;20525;-47
2022/06/04 07:10:51;;;;;;;2.55;1.50;;;;;;;18.00;50.71;101986.72;5024167;28;20033;-47
2022/06/04 07:13:16;;;;;;;2.92;1.58;;;;;;;18.04;50.39;101985.09;5024983;28;20045;-48
2022/06/04 07:15:43;;;;;;;1.70;1.60;;;;;;;18.04;50.38;101993.22;5023843;28;20025;-47
2022/06/04 07:18:13;;;;;;;2.03;1.60;;;;;;;18.05;50.36;101990.25;5025231;28;20060;-48
2022/06/04 07:20:40;;;;;;;3.75;1.52;;;;;;;18.08;50.56;101995.13;5020850;28;20021;-47
2022/06/04 07:23:06;;;;;;;3.40;1.65;;;;;;;18.11;50.16;101991.06;5025018;28;20018;-48
2022/06/04 07:25:32;;;;;;;2.35;1.60;;;;;;;18.14;49.79;101993.25;5021218;28;20017;-47
2022/06/04 07:27:58;;;;;;;1.73;1.50;;;;;;;18.17;49.81;101986.47;5023297;28;20029;-48
2022/06/04 07:30:24;;;;;;;3.13;1.63;;;;;;;18.20;49.72;101986.75;5025540;28;20108;-48
2022/06/04 07:32:49;;;;;;;2.28;1.42;;;;;;;18.24;49.59;101982.41;5019396;28;20509;-49
2022/06/04 07:35:15;;;;;;;1.58;1.48;;;;;;;18.30;49.56;101996.78;5024409;28;20116;-47
2022/06/04 07:37:41;;;;;;;3.85;1.70;;;;;;;18.33;49.50;101996.28;5023261;28;20022;-49
2022/06/04 07:40:07;;;;;;;3.47;1.75;;;;;;;18.37;49.79;101998.16;5025509;28;20025;-47
2022/06/04 07:42:33;;;;;;;3.65;1.50;;;;;;;18.38;49.09;101997.09;5024123;28;20029;-48
2022/06/04 07:44:58;;;;;;;2.40;1.63;;;;;;;18.42;48.91;102000.06;5021772;28;20084;-47
2022/06/04 07:47:24;;;;;;;2.00;1.45;;;;;;;18.49;48.67;101994.34;5020906;28;20111;-51
2022/06/04 07:49:54;;;;;;;4.72;1.70;;;;;;;18.56;48.68;102001.16;5024735;28;20036;-47
2022/06/04 07:52:19;;;;;;;1.63;1.52;;;;;;;18.67;48.87;102004.72;5025248;28;20099;-47
2022/06/04 07:54:45;;;;;;;1.50;1.40;;;;;;;18.73;48.54;102011.78;5022140;28;20558;-47
2022/06/04 07:57:10;;;;;;;2.70;1.38;;;;;;;18.80;48.65;102012.31;5024379;28;20024;-47
2022/06/04 07:59:36;;;;;;;2.08;1.60;;;;;;;18.82;48.20;102015.56;5021391;28;20054;-48
2022/06/04 08:02:01;;;;;;;2.92;2.17;;;;;;;18.89;48.33;102024.28;5021074;28;20146;-48
2022/06/04 08:04:27;;;;;;;2.17;1.45;;;;;;;18.95;48.05;102019.63;5023582;28;20025;-48
2022/06/04 08:06:53;;;;;;;2.30;1.50;;;;;;;19.03;47.76;102013.66;5022265;28;20021;-49
2022/06/04 08:09:18;;;;;;;4.30;1.90;;;;;;;19.12;47.53;102022.06;5024541;28;20033;-48
2022/06/04 08:11:44;;;;;;;3.58;1.38;;;;;;;19.22;47.58;102020.16;5020531;28;20033;-47
2022/06/04 08:14:17;;;;;;;3.65;1.55;;;;;;;19.27;47.55;102016.59;5019250;28;20029;-47
2022/06/04 08:16:51;;;;;;;2.45;1.27;;;;;;;19.32;46.90;102019.31;5020464;28;20025;-48
2022/06/04 08:19:18;;;;;;;5.75;1.90;;;;;;;19.39;47.65;102017.13;5023107;28;20120;-48
2022/06/04 08:21:44;;;;;;;2.45;2.03;;;;;;;19.55;47.87;102017.91;5022179;28;20049;-47
2022/06/04 08:24:12;;;;;;;3.22;1.90;;;;;;;19.70;47.36;102023.28;5024760;28;20561;-50
2022/06/04 08:26:38;;;;;;;3.70;1.88;;;;;;;19.87;47.12;102028.38;5019843;28;20049;-48
2022/06/04 08:29:04;;;;;;;2.65;1.83;;;;;;;20.01;47.01;102023.94;5023566;28;20083;-49
2022/06/04 08:31:29;;;;;;;2.20;1.42;;;;;;;20.19;47.01;102022.50;5019327;28;20033;-48
2022/06/04 08:33:56;;;;;;;2.75;1.80;;;;;;;20.37;47.14;102021.81;5021596;28;20645;-48
2022/06/04 08:36:21;;;;;;;2.47;1.63;;;;;;;20.52;46.92;102026.38;5019421;28;20684;-50
2022/06/04 08:38:47;;;;;;;2.20;1.75;;;;;;;20.58;46.76;102022.50;5021920;28;20091;-48
2022/06/04 08:41:22;;;;;;;5.03;2.13;;;;;;;20.63;46.38;102027.91;5023480;28;20440;-48
2022/06/04 08:44:33;;;;;;;1.65;1.50;;;;;;;20.71;45.70;102024.59;5021357;28;20033;-47
2022/06/04 08:47:29;;;;;;;5.45;2.00;;;;;;;20.89;45.14;102020.34;4960201;28;20027;-48
2022/06/04 08:50:02;;;;;;;2.20;1.60;;;;;;;21.03;45.50;102021.31;5017715;28;20302;-47
2022/06/04 08:52:31;;;;;;;4.78;1.67;;;;;;;21.22;45.64;102028.75;5021536;28;20057;-50
2022/06/04 08:57:59;;;;;;;5.13;2.05;;;;;;;21.43;45.28;102030.19;5023083;28;20087;-47
2022/06/04 09:01:08;;;;;;;3.38;1.73;;;;;;;21.48;44.49;102040.22;5020462;28;20029;-48
2022/06/04 09:03:50;;;;;;;4.20;1.63;;;;;;;21.54;44.27;102045.31;5021972;28;20036;-47
2022/06/04 09:06:35;;;;;;;4.30;1.70;;;;;;;21.57;44.47;102038.50;5020126;28;20035;-50
2022/06/04 09:09:17;;;;;;;4.28;1.92;;;;;;;21.55;43.66;102044.25;5021509;28;20414;-48
2022/06/04 09:12:03;;;;;;;3.65;1.80;;;;;;;21.54;43.32;102048.03;5022092;28;20021;-49
2022/06/04 09:15:03;;;;;;;5.47;1.98;;;;;;;21.67;43.98;102052.00;5023179;28;20381;-47
2022/06/04 09:18:07;;;;;;;2.30;1.80;;;;;;;21.84;44.35;102046.06;5006068;28;20394;-49
2022/06/04 09:20:45;;;;;;;2.40;1.67;;;;;;;21.93;43.89;102050.59;5016569;28;20046;-47
2022/06/04 09:23:29;;;;;;;3.08;1.90;;;;;;;21.91;43.05;102041.88;5021738;28;20022;-47
2022/06/04 09:26:07;;;;;;;4.37;1.80;;;;;;;22.01;43.36;102052.66;5020167;28;20140;-47
2022/06/04 09:28:40;;;;;;;4.38;1.80;;;;;;;22.07;43.59;102045.22;5022367;28;20296;-48
2022/06/04 09:31:15;;;;;;;3.22;1.70;;;;;;;22.14;43.35;102053.06;5021188;28;20021;-47
2022/06/04 09:33:46;;;;;;;1.85;1.70;;;;;;;22.18;42.90;102057.63;5018348;28;20067;-48
2022/06/04 09:36:16;;;;;;;2.22;1.55;;;;;;;22.20;43.16;102054.59;5023296;28;20025;-49
2022/06/04 09:38:53;;;;;;;6.45;1.90;;;;;;;22.21;43.02;102061.69;5036152;22;20029;-49
2022/06/04 09:41:22;;;;;;;2.40;1.42;;;;;;;22.18;42.85;102056.81;5002899;28;20081;-49
2022/06/04 09:44:14;;;;;;;2.47;1.58;;;;;;;22.10;42.96;102058.31;4997658;28;20036;-48
2022/06/04 09:46:46;;;;;;;3.10;2.05;;;;;;;22.14;43.18;102050.34;5001706;28;20069;-48
2022/06/04 09:49:25;;;;;;;1.95;1.73;;;;;;;22.25;43.77;102058.06;4996548;28;20105;-48
2022/06/04 09:51:50;;;;;;;2.42;1.70;;;;;;;22.40;44.01;102056.22;4983740;28;20774;-47
2022/06/04 09:54:29;;;;;;;3.30;1.70;;;;;;;22.48;43.09;102061.84;4987768;28;20053;-48
2022/06/04 09:57:02;;;;;;;2.78;1.90;;;;;;;22.56;43.53;102074.81;4986527;28;20108;-49
2022/06/04 09:59:31;;;;;;;3.10;2.10;;;;;;;22.68;43.71;102076.28;4986731;28;20030;-47
2022/06/04 10:02:09;;;;;;;7.63;2.67;;;;;;;22.75;44.18;102071.25;4985185;28;20046;-49
2022/06/04 10:04:47;;;;;;;9.80;3.33;;;;;;;22.86;44.82;102076.28;4987558;28;20030;-49
2022/06/04 10:07:30;;;;;;;6.60;2.85;;;;;;;23.03;44.76;102075.75;4981355;28;20066;-48
2022/06/04 10:09:58;;;;;;;11.63;3.33;;;;;;;23.21;44.38;102074.88;4982477;28;20496;-49
2022/06/04 10:15:34;;;;;;;6.13;2.83;;;;;;;23.31;43.80;102078.50;4992056;28;20045;-49
2022/06/04 10:18:21;;;;;;;6.63;2.42;;;;;;;23.33;43.50;102071.63;4990551;28;20398;-46
2022/06/04 10:21:07;;;;;;;9.15;2.78;;;;;;;23.37;42.43;102072.66;4987947;28;20017;-48
2022/06/04 10:23:50;;;;;;;4.57;2.35;;;;;;;23.38;42.80;102077.03;4988044;28;20145;-48
2022/06/04 10:26:53;;;;;;;7.03;2.47;;;;;;;23.40;42.84;102079.44;4988961;28;20491;-47
2022/06/04 10:29:47;;;;;;;4.95;2.30;;;;;;;23.45;42.04;102080.16;4987904;28;20388;-47
2022/06/04 10:32:20;;;;;;;6.70;2.60;;;;;;;23.49;42.07;102067.47;4987195;28;20037;-48
2022/06/04 10:34:46;;;;;;;5.25;2.75;;;;;;;23.57;42.68;102074.22;4988531;28;20060;-46
2022/06/04 10:37:30;;;;;;;5.43;2.58;;;;;;;23.63;42.88;102077.66;4987126;28;20054;-46
2022/06/04 10:40:15;;;;;;;4.13;2.20;;;;;;;23.72;42.56;102076.66;4991232;28;20034;-48
2022/06/04 10:42:47;;;;;;;3.17;2.03;;;;;;;23.78;41.36;102080.91;4989953;28;20518;-48
2022/06/04 10:45:32;;;;;;;4.05;2.20;;;;;;;23.77;42.12;102081.22;4987274;28;20064;-48
2022/06/04 10:48:22;;;;;;;2.35;1.80;;;;;;;23.96;41.61;102078.34;4989084;28;20447;-47
2022/06/04 10:54:13;;;;;;;4.40;1.80;;;;;;;24.22;41.69;102075.84;4983985;28;20058;-47
2022/06/04 10:56:51;;;;;;;3.10;2.05;;;;;;;24.26;40.64;102076.88;4990053;28;20112;-48
2022/06/04 10:59:23;;;;;;;3.65;2.03;;;;;;;24.16;40.34;102077.09;4988770;28;20038;-47
2022/06/04 11:01:57;;;;;;;3.38;1.60;;;;;;;24.13;40.23;102077.72;4988445;28;20025;-47
2022/06/04 11:04:48;;;;;;;3.30;1.70;;;;;;;24.15;40.29;102076.28;4988650;28;20034;-50
2022/06/04 11:07:36;;;;;;;3.35;1.73;;;;;;;24.26;40.50;102076.88;4986459;28;20444;-48
2022/06/04 11:10:28;;;;;;;2.83;1.80;;;;;;;24.21;39.63;102080.53;4989359;28;20032;-47
2022/06/04 11:13:31;;;;;;;3.17;1.67;;;;;;;24.08;39.50;102087.66;4989517;28;20074;-47
2022/06/04 11:16:38;;;;;;;4.07;2.47;;;;;;;23.97;39.74;102079.97;4983976;28;20034;-48
2022/06/04 11:19:06;;;;;;;4.78;2.10;;;;;;;23.99;40.01;102069.53;4991539;28;20053;-46
2022/06/04 11:21:35;;;;;;;4.13;2.00;;;;;;;23.96;40.60;102065.47;4990841;28;20053;-48
2022/06/04 11:24:27;;;;;;;3.22;1.90;;;;;;;24.00;40.18;102069.22;4987652;28;20125;-48
2022/06/04 11:27:14;;;;;;;3.67;1.98;;;;;;;24.14;39.96;102063.72;4989311;28;20053;-48
2022/06/04 11:29:40;;;;;;;4.68;1.92;;;;;;;24.36;39.96;102065.72;4984314;28;20503;-47
2022/06/04 11:32:28;;;;;;;2.92;2.38;;;;;;;24.49;39.47;102064.06;4990153;28;20045;-47
2022/06/04 11:35:25;;;;;;;7.18;2.67;;;;;;;24.56;38.23;102056.19;4987965;28;20517;-47
2022/06/04 11:38:17;;;;;;;7.68;2.58;;;;;;;24.48;39.31;102057.75;4990747;28;20330;-47
2022/06/04 11:40:57;;;;;;;3.80;1.77;;;;;;;24.53;39.81;102054.09;4960480;28;20261;-48
2022/06/04 11:43:31;;;;;;;3.15;1.85;;;;;;;24.58;40.26;102054.75;4985907;28;20026;-47
2022/06/04 11:46:09;;;;;;;2.65;1.70;;;;;;;24.57;40.18;102055.06;4988647;28;20041;-46
2022/06/04 11:48:37;;;;;;;3.33;2.00;;;;;;;24.56;39.98;102064.41;4989983;28;20026;-47
2022/06/04 11:51:28;;;;;;;2.78;2.17;;;;;;;24.47;39.96;102056.16;4986799;28;20035;-48
2022/06/04 11:54:05;;;;;;;4.38;2.40;;;;;;;24.50;40.52;102054.72;4982800;28;20099;-47
2022/06/04 11:56:43;;;;;;;3.58;2.20;;;;;;;24.57;40.67;102060.56;4986363;28;20023;-50
2022/06/04 11:59:31;;;;;;;4.50;2.67;;;;;;;24.56;40.97;102058.94;4987066;28;20058;-47
2022/06/04 12:02:13;;;;;;;4.75;2.28;;;;;;;24.61;41.18;102056.09;4979219;28;20130;-47
2022/06/04 12:04:52;;;;;;;4.55;2.25;;;;;;;24.69;41.87;102060.81;4987907;28;20026;-49
2022/06/04 12:07:28;;;;;;;4.53;2.80;;;;;;;24.79;41.33;102051.53;4982426;28;20038;-47